Time;durP1;ratioP1;P1;durP2;ratioP2;P2;SDS_P1;SDS_P2;PMS_P1;PMS_P2;Temp;Humidity;BMP_temperature;BMP_pressure;BME280_temperature;BME280_humidity;BME280_pressure;Samples;Min_cycle;Max_cycle;Signal;HPM_P1;HPM_P2
2021/04/15 07:32:30;;;;;;;8.43;3.25;;;21.50;76.10;;;;;;5054381;28;20458;-69
2021/04/15 07:35:17;;;;;;;7.22;2.83;;;21.40;75.90;;;;;;5047399;28;20033;-68
2021/04/15 07:38:08;;;;;;;11.25;2.70;;;21.50;75.90;;;;;;5042491;28;20477;-68
2021/04/15 07:40:53;;;;;;;9.48;2.90;;;21.50;75.80;;;;;;5044218;28;20428;-68
2021/04/15 07:44:04;;;;;;;5.05;2.60;;;21.50;75.60;;;;;;5048159;28;20021;-68
2021/04/15 07:46:40;;;;;;;6.10;2.95;;;21.50;75.50;;;;;;4985816;28;20053;-68
2021/04/15 07:49:25;;;;;;;6.32;3.00;;;21.50;75.40;;;;;;4987375;28;20150;-68
2021/04/15 07:52:19;;;;;;;7.78;2.58;;;21.60;75.30;;;;;;5021581;28;20485;-68
2021/04/15 07:55:08;;;;;;;8.27;3.30;;;21.60;75.20;;;;;;5044251;28;20060;-68
2021/04/15 07:57:53;;;;;;;5.40;2.83;;;21.60;75.00;;;;;;5051934;28;20375;-68
2021/04/15 08:00:36;;;;;;;5.50;2.80;;;21.60;74.90;;;;;;5046639;28;20494;-68
2021/04/15 08:03:31;;;;;;;7.15;2.70;;;21.60;74.80;;;;;;5048608;28;20111;-67
2021/04/15 08:06:31;;;;;;;6.63;3.10;;;21.70;74.70;;;;;;5045599;28;20029;-68
2021/04/15 08:09:00;;;;;;;7.47;3.22;;;21.70;74.60;;;;;;5046042;28;20086;-68
2021/04/15 08:11:38;;;;;;;6.47;2.83;;;21.70;74.60;;;;;;5053711;28;20366;-68
2021/04/15 08:14:29;;;;;;;7.55;4.18;;;21.70;74.50;;;;;;5045568;28;20017;-68
2021/04/15 08:17:18;;;;;;;5.88;3.33;;;21.80;74.40;;;;;;5051456;28;20464;-68
2021/04/15 08:20:39;;;;;;;6.18;2.75;;;21.80;74.20;;;;;;5036396;28;20308;-68
2021/04/15 08:23:09;;;;;;;6.18;3.15;;;21.80;74.10;;;;;;5010227;28;20035;-68
2021/04/15 08:26:08;;;;;;;9.05;3.15;;;21.90;74.00;;;;;;5050550;28;20025;-68
2021/04/15 08:28:36;;;;;;;5.20;3.50;;;21.90;73.80;;;;;;5039557;28;20538;-68
2021/04/15 08:31:21;;;;;;;6.85;3.95;;;21.90;73.60;;;;;;5055015;28;20062;-69
2021/04/15 08:34:05;;;;;;;5.72;3.00;;;22.00;73.40;;;;;;5089043;28;20363;-69
2021/04/15 08:37:05;;;;;;;4.65;3.22;;;22.00;73.20;;;;;;5087875;28;20383;-69
2021/04/15 08:39:57;;;;;;;8.98;2.90;;;22.00;73.00;;;;;;5085445;28;20064;-69
2021/04/15 08:42:49;;;;;;;7.07;3.05;;;22.10;72.90;;;;;;5086666;28;20088;-69
2021/04/15 08:45:47;;;;;;;6.70;3.03;;;22.10;72.80;;;;;;5088741;28;20020;-69
2021/04/15 08:49:03;;;;;;;10.90;2.88;;;22.10;72.70;;;;;;5090766;28;20021;-68
2021/04/15 08:51:54;;;;;;;6.45;3.08;;;22.20;72.60;;;;;;5047709;28;20067;-69
2021/04/15 08:54:35;;;;;;;9.30;3.38;;;22.10;72.30;;;;;;5089069;28;20031;-69
2021/04/15 08:57:23;;;;;;;6.20;2.58;;;22.20;72.20;;;;;;5092705;28;20111;-68
2021/04/15 08:59:59;;;;;;;5.32;3.53;;;22.20;72.00;;;;;;5093032;28;20028;-69
2021/04/15 09:02:35;;;;;;;8.73;3.83;;;22.30;71.70;;;;;;5092866;28;20028;-69
2021/04/15 09:05:24;;;;;;;11.77;3.55;;;22.30;71.50;;;;;;5093751;28;20092;-68
2021/04/15 09:07:59;;;;;;;10.32;3.33;;;22.40;71.40;;;;;;5092745;28;20024;-68
2021/04/15 09:11:08;;;;;;;8.18;3.15;;;22.40;71.40;;;;;;5088558;28;20032;-69
2021/04/15 09:13:38;;;;;;;9.40;4.05;;;22.50;71.20;;;;;;5081218;28;20028;-69
2021/04/15 09:16:15;;;;;;;6.88;3.08;;;22.50;71.00;;;;;;5092286;28;20057;-68
2021/04/15 09:19:11;;;;;;;7.40;2.83;;;22.60;70.90;;;;;;5093414;28;20032;-68
2021/04/15 09:21:40;;;;;;;11.32;3.13;;;22.70;70.40;;;;;;5088766;28;20177;-69
2021/04/15 09:24:20;;;;;;;8.73;3.53;;;22.70;70.10;;;;;;5085913;28;20366;-68
2021/04/15 09:27:01;;;;;;;5.72;3.03;;;22.70;69.90;;;;;;5090294;28;20039;-68
2021/04/15 09:30:04;;;;;;;11.18;3.33;;;22.80;69.70;;;;;;5091408;28;20117;-69
2021/04/15 09:33:00;;;;;;;8.55;3.35;;;22.90;69.50;;;;;;5029293;28;20043;-68
2021/04/15 09:36:04;;;;;;;4.90;2.75;;;22.90;69.60;;;;;;5088041;28;20107;-68
2021/04/15 09:38:55;;;;;;;10.10;3.05;;;22.90;69.30;;;;;;5075362;28;20043;-68
2021/04/15 09:41:40;;;;;;;7.90;2.75;;;23.00;69.20;;;;;;5087903;28;20052;-69
2021/04/15 09:44:39;;;;;;;6.60;2.75;;;23.10;69.10;;;;;;5092964;28;20024;-68
2021/04/15 09:47:12;;;;;;;10.45;3.30;;;23.10;68.80;;;;;;5020267;28;20568;-69
2021/04/15 09:50:11;;;;;;;6.63;4.32;;;23.10;68.50;;;;;;5092036;28;20020;-68
2021/04/15 09:52:50;;;;;;;6.65;2.78;;;23.20;68.30;;;;;;5021923;28;20051;-68
2021/04/15 09:55:26;;;;;;;6.68;3.65;;;23.20;68.40;;;;;;5091722;28;20090;-69
2021/04/15 09:58:16;;;;;;;6.05;2.97;;;23.30;68.40;;;;;;5085723;28;20466;-69
2021/04/15 10:00:51;;;;;;;7.28;2.65;;;23.30;68.10;;;;;;5092152;28;20546;-69
2021/04/15 10:03:17;;;;;;;12.32;4.03;;;23.40;67.90;;;;;;5091201;28;20107;-68
2021/04/15 10:06:03;;;;;;;6.13;2.88;;;23.40;67.90;;;;;;5088319;28;20024;-69
2021/04/15 10:08:54;;;;;;;7.18;2.28;;;23.40;67.70;;;;;;5087505;28;20073;-69
2021/04/15 10:11:36;;;;;;;6.50;2.38;;;23.50;67.60;;;;;;5089313;28;20055;-69
2021/04/15 10:14:30;;;;;;;5.63;2.35;;;23.50;67.50;;;;;;5090349;28;20441;-69
2021/04/15 10:17:33;;;;;;;8.77;2.03;;;23.50;67.50;;;;;;5091178;28;20017;-68
2021/04/15 10:20:02;;;;;;;5.43;2.20;;;23.50;67.00;;;;;;5082957;28;20069;-69
2021/04/15 10:22:38;;;;;;;5.55;2.58;;;23.50;67.10;;;;;;5092452;28;20475;-67
2021/04/15 10:25:10;;;;;;;8.13;2.45;;;23.50;67.10;;;;;;5090965;28;20024;-69
2021/04/15 10:28:04;;;;;;;7.78;3.10;;;23.60;67.00;;;;;;5092213;28;20024;-69
2021/04/15 10:31:18;;;;;;;5.70;2.60;;;23.60;67.10;;;;;;5090492;28;20072;-69
2021/04/15 10:34:03;;;;;;;5.47;2.95;;;23.70;66.90;;;;;;5089206;28;20017;-69
2021/04/15 10:36:53;;;;;;;6.40;2.83;;;23.70;66.40;;;;;;5085962;28;21200;-69
2021/04/15 10:39:47;;;;;;;6.38;2.58;;;23.80;66.30;;;;;;5090636;28;20024;-69
2021/04/15 10:42:47;;;;;;;5.97;3.20;;;23.90;66.10;;;;;;5088092;28;20360;-69
2021/04/15 10:45:23;;;;;;;4.72;2.53;;;23.90;65.90;;;;;;5091363;28;20024;-68
2021/04/15 10:48:18;;;;;;;12.15;3.00;;;24.00;65.80;;;;;;5091064;28;20012;-69
2021/04/15 10:51:13;;;;;;;7.15;2.83;;;24.00;65.30;;;;;;5072500;28;20055;-68
2021/04/15 10:54:08;;;;;;;4.70;2.75;;;24.10;65.00;;;;;;5087488;28;20653;-69
2021/04/15 10:56:43;;;;;;;10.02;3.67;;;24.10;64.80;;;;;;5075329;28;20054;-69
2021/04/15 10:59:27;;;;;;;7.60;3.72;;;24.20;64.50;;;;;;5089638;28;20005;-68
2021/04/15 11:02:09;;;;;;;8.02;3.00;;;24.20;64.20;;;;;;5090316;28;20068;-69
2021/04/15 11:04:35;;;;;;;9.40;2.80;;;24.30;63.40;;;;;;5087836;28;20024;-69
2021/04/15 11:07:14;;;;;;;6.30;2.83;;;24.40;63.10;;;;;;5090604;28;20039;-68
2021/04/15 11:09:44;;;;;;;6.97;2.70;;;24.40;63.00;;;;;;5090575;28;20020;-69
2021/04/15 11:12:16;;;;;;;11.43;2.75;;;24.50;62.60;;;;;;5089972;28;20498;-68
2021/04/15 11:14:48;;;;;;;3.33;2.03;;;24.60;62.40;;;;;;5091378;28;20463;-68
2021/04/15 11:17:27;;;;;;;4.70;2.55;;;24.60;62.30;;;;;;5089968;28;20020;-69
2021/04/15 11:20:15;;;;;;;6.45;2.47;;;24.70;62.10;;;;;;5091322;28;20059;-69
2021/04/15 11:22:57;;;;;;;5.15;2.63;;;24.70;61.80;;;;;;5090306;28;20421;-69
2021/04/15 11:25:26;;;;;;;6.22;2.67;;;24.80;61.50;;;;;;5080407;28;20489;-69
2021/04/15 11:27:53;;;;;;;4.32;2.35;;;24.90;61.40;;;;;;5087191;28;20020;-68
2021/04/15 11:30:36;;;;;;;3.83;2.67;;;24.90;61.20;;;;;;5083299;28;20085;-69
2021/04/15 11:33:05;;;;;;;3.97;2.65;;;24.90;61.00;;;;;;5088873;28;20059;-69
2021/04/15 11:35:33;;;;;;;7.82;2.58;;;25.00;60.70;;;;;;5085956;28;20103;-69
2021/04/15 11:38:25;;;;;;;6.93;3.28;;;25.00;60.60;;;;;;5090231;28;20077;-69
2021/04/15 11:40:53;;;;;;;5.20;3.47;;;25.10;60.20;;;;;;5087246;28;20028;-69
2021/04/15 11:43:37;;;;;;;5.90;2.70;;;25.20;60.20;;;;;;5089512;28;20012;-68
2021/04/15 11:46:20;;;;;;;3.80;2.47;;;25.20;60.20;;;;;;5090559;28;20016;-68
2021/04/15 11:49:21;;;;;;;2.38;2.17;;;25.30;60.10;;;;;;5090530;28;20071;-69
2021/04/15 11:51:59;;;;;;;5.10;2.28;;;25.30;60.10;;;;;;5076489;28;20064;-68
2021/04/15 11:54:43;;;;;;;8.63;2.13;;;25.30;60.10;;;;;;5089980;28;20543;-69
2021/04/15 11:57:18;;;;;;;9.20;2.53;;;25.40;59.80;;;;;;5084135;28;20027;-69
2021/04/15 11:59:57;;;;;;;2.75;1.88;;;25.40;59.70;;;;;;5089760;28;20470;-69
2021/04/15 12:02:43;;;;;;;8.80;2.65;;;25.40;59.70;;;;;;5084221;28;20156;-68
2021/04/15 12:05:29;;;;;;;5.82;2.70;;;25.40;59.70;;;;;;5088328;28;20047;-69
2021/04/15 12:08:08;;;;;;;5.60;2.20;;;25.50;59.50;;;;;;5090081;28;20023;-69
2021/04/15 12:10:38;;;;;;;5.30;2.47;;;25.50;59.60;;;;;;5090491;28;20042;-69
2021/04/15 12:13:17;;;;;;;9.10;3.17;;;25.50;59.90;;;;;;5087349;28;20464;-68
2021/04/15 12:16:00;;;;;;;6.38;2.20;;;25.50;60.10;;;;;;5082197;28;20023;-69
2021/04/15 12:18:40;;;;;;;6.20;2.15;;;25.60;60.40;;;;;;5087491;28;20024;-69
2021/04/15 12:21:06;;;;;;;5.85;3.67;;;25.60;60.50;;;;;;5089140;28;20020;-68
2021/04/15 12:23:52;;;;;;;5.45;2.20;;;25.60;60.60;;;;;;5090187;28;20055;-69
2021/04/15 12:26:31;;;;;;;7.22;2.20;;;25.60;60.60;;;;;;5088859;28;20048;-68
2021/04/15 12:29:29;;;;;;;7.45;2.70;;;25.60;60.60;;;;;;5090207;28;20467;-69
2021/04/15 12:32:11;;;;;;;7.00;2.70;;;25.70;60.60;;;;;;5083627;28;20043;-70
2021/04/15 12:34:45;;;;;;;7.03;3.80;;;25.70;60.60;;;;;;5089294;28;20031;-69
2021/04/15 12:37:35;;;;;;;11.60;3.53;;;25.70;60.30;;;;;;5087740;28;20540;-69
2021/04/15 12:40:14;;;;;;;6.43;2.38;;;25.80;60.40;;;;;;5088170;28;20024;-68
2021/04/15 12:42:43;;;;;;;7.38;2.92;;;25.80;60.30;;;;;;5087427;28;20524;-68
2021/04/15 12:45:46;;;;;;;5.90;2.72;;;25.80;60.00;;;;;;5088164;28;20099;-68
2021/04/15 12:48:29;;;;;;;10.80;4.78;;;25.80;60.20;;;;;;5069639;28;20032;-68
2021/04/15 12:50:58;;;;;;;9.77;2.95;;;25.80;60.50;;;;;;5086936;28;20042;-68
2021/04/15 12:53:26;;;;;;;11.57;2.42;;;25.80;60.60;;;;;;5089351;28;20012;-68
2021/04/15 12:55:52;;;;;;;15.93;4.75;;;25.70;60.70;;;;;;5089423;28;20099;-68
2021/04/15 12:58:20;;;;;;;8.38;3.20;;;25.70;61.00;;;;;;5089861;28;20042;-68
2021/04/15 13:00:50;;;;;;;6.38;2.50;;;25.70;61.20;;;;;;5082285;28;20025;-68
2021/04/15 13:03:30;;;;;;;10.40;3.35;;;25.60;61.20;;;;;;5089718;28;20020;-69
2021/04/15 13:06:15;;;;;;;8.20;2.65;;;25.60;61.50;;;;;;5082797;28;20036;-68
2021/04/15 13:08:46;;;;;;;7.50;2.50;;;25.50;61.50;;;;;;5089354;28;20015;-68
2021/04/15 13:11:18;;;;;;;9.88;2.88;;;25.50;61.70;;;;;;5088582;28;20032;-69
2021/04/15 13:13:56;;;;;;;10.82;3.10;;;25.50;61.50;;;;;;5088706;28;20024;-68
2021/04/15 13:16:35;;;;;;;8.45;2.85;;;25.50;61.60;;;;;;5083768;28;20024;-68
2021/04/15 13:19:10;;;;;;;6.47;2.53;;;25.50;61.60;;;;;;5088910;28;20136;-69
2021/04/15 13:22:09;;;;;;;7.25;2.95;;;25.50;61.60;;;;;;5089428;28;20063;-69
2021/04/15 13:24:49;;;;;;;12.07;3.78;;;25.50;61.50;;;;;;5081724;28;20028;-68
2021/04/15 13:27:34;;;;;;;12.05;3.17;;;25.50;61.50;;;;;;5088458;28;20031;-68
2021/04/15 13:30:17;;;;;;;10.82;3.03;;;25.50;61.40;;;;;;5089247;28;20036;-68
2021/04/15 13:33:15;;;;;;;13.48;2.80;;;25.50;61.40;;;;;;5084929;28;20048;-69
2021/04/15 13:36:17;;;;;;;6.75;3.35;;;25.50;61.40;;;;;;5091574;28;20150;-68
2021/04/15 13:38:59;;;;;;;11.75;3.75;;;25.50;61.50;;;;;;5090420;28;20020;-68
2021/04/15 13:41:27;;;;;;;8.23;2.60;;;25.40;61.50;;;;;;5092671;28;20023;-68
2021/04/15 13:44:08;;;;;;;8.13;3.25;;;25.40;61.60;;;;;;5091890;28;20015;-67
2021/04/15 13:46:37;;;;;;;10.27;3.10;;;25.40;61.60;;;;;;5086797;28;20077;-68
2021/04/15 13:49:11;;;;;;;11.48;3.20;;;25.40;61.70;;;;;;5091072;28;20055;-69
2021/04/15 13:51:52;;;;;;;12.30;3.30;;;25.40;61.70;;;;;;5087438;28;20687;-69
2021/04/15 13:54:32;;;;;;;7.90;2.58;;;25.40;61.50;;;;;;5092473;28;20478;-69
2021/04/15 13:57:04;;;;;;;12.10;3.47;;;25.40;61.50;;;;;;5091781;28;20478;-69
2021/04/15 14:02:15;;;;;;;9.68;3.55;;;25.30;61.30;;;;;;5089368;28;20084;-69
2021/04/15 14:04:42;;;;;;;9.30;2.80;;;25.30;61.30;;;;;;5092027;28;20451;-69
2021/04/15 14:07:34;;;;;;;13.48;3.88;;;25.30;61.30;;;;;;5092314;28;20022;-69
2021/04/15 14:10:06;;;;;;;11.75;3.40;;;25.30;61.20;;;;;;5082020;28;20107;-69
2021/04/15 14:12:41;;;;;;;10.85;3.80;;;25.30;61.20;;;;;;5092518;28;20028;-69
2021/04/15 14:15:21;;;;;;;15.70;5.10;;;25.30;61.00;;;;;;5091213;28;20016;-69
2021/04/15 14:17:51;;;;;;;12.00;4.65;;;25.30;60.90;;;;;;5092224;28;20025;-68
2021/04/15 14:20:24;;;;;;;10.60;3.88;;;25.30;61.00;;;;;;5092080;28;20538;-69
2021/04/15 14:22:51;;;;;;;9.85;3.30;;;25.30;61.10;;;;;;5091329;28;20016;-69
2021/04/15 14:25:34;;;;;;;21.17;5.50;;;25.30;61.20;;;;;;5087576;28;20114;-69
2021/04/15 14:28:08;;;;;;;13.40;4.45;;;25.30;61.70;;;;;;5088107;28;20039;-69
2021/04/15 14:30:35;;;;;;;17.55;5.47;;;25.30;60.90;;;;;;5091959;28;20058;-69
2021/04/15 14:33:40;;;;;;;14.50;6.43;;;25.30;61.00;;;;;;5086796;28;20047;-71
2021/04/15 14:36:20;;;;;;;10.93;4.55;;;25.20;61.00;;;;;;5008148;28;20375;-68
2021/04/15 14:38:47;;;;;;;17.83;4.57;;;25.20;61.00;;;;;;5009719;28;20022;-68
2021/04/15 14:41:13;;;;;;;15.70;4.22;;;25.20;61.10;;;;;;5055094;28;20735;-68
2021/04/15 14:43:42;;;;;;;16.48;3.92;;;25.20;61.30;;;;;;5091885;28;20111;-68
2021/04/15 14:46:10;;;;;;;7.63;3.72;;;25.20;61.60;;;;;;5091285;28;20044;-69
2021/04/15 14:48:37;;;;;;;11.90;3.58;;;25.20;61.80;;;;;;5087176;28;20517;-68
2021/04/15 14:51:34;;;;;;;16.00;4.00;;;25.20;61.80;;;;;;5085359;28;20033;-69
2021/04/15 14:54:26;;;;;;;14.30;5.15;;;25.10;61.80;;;;;;5077377;28;20468;-68
2021/04/15 14:56:55;;;;;;;12.82;5.40;;;25.10;62.10;;;;;;5085862;28;20028;-71
2021/04/15 14:59:34;;;;;;;13.05;4.97;;;25.00;61.90;;;;;;5089049;28;20036;-68
2021/04/15 15:02:10;;;;;;;21.13;7.35;;;25.00;62.00;;;;;;5086760;28;20024;-69
2021/04/15 15:04:37;;;;;;;30.35;11.02;;;25.00;62.10;;;;;;5081900;28;20442;-68
2021/04/15 15:07:04;;;;;;;21.70;9.45;;;25.00;62.20;;;;;;5089350;28;20095;-67
2021/04/15 15:09:33;;;;;;;18.80;8.57;;;24.90;62.20;;;;;;5090229;28;20539;-68
2021/04/15 15:12:05;;;;;;;13.30;7.28;;;24.90;62.20;;;;;;5090844;28;20519;-69
2021/04/15 15:15:11;;;;;;;13.15;5.22;;;24.80;62.80;;;;;;5090305;28;20016;-69
2021/04/15 15:17:57;;;;;;;;;;;24.80;62.10;;;;;;5088321;28;20027;-67
2021/04/15 15:21:21;;;;;;;15.60;4.30;;;24.80;62.20;;;;;;5084125;28;20359;-70
2021/04/15 15:24:31;;;;;;;8.13;3.40;;;24.70;62.20;;;;;;5081198;28;20067;-68
2021/04/15 15:27:43;;;;;;;10.80;3.78;;;24.70;62.10;;;;;;5088464;28;20066;-68
2021/04/15 15:30:49;;;;;;;12.07;3.45;;;24.70;62.20;;;;;;5088395;28;20540;-68
2021/04/15 15:33:24;;;;;;;;;;;24.70;62.30;;;;;;5090186;28;20114;-66
2021/04/15 15:36:10;;;;;;;17.17;7.38;;;24.60;62.40;;;;;;5089953;28;20007;-69
2021/04/15 15:39:00;;;;;;;14.75;4.80;;;24.60;62.50;;;;;;5090045;28;20008;-67
2021/04/15 15:42:01;;;;;;;14.13;4.68;;;24.60;62.70;;;;;;5084264;28;20051;-69
2021/04/15 15:44:34;;;;;;;9.32;3.50;;;24.50;62.80;;;;;;5088884;28;20028;-69
2021/04/15 15:47:02;;;;;;;7.53;3.60;;;24.40;62.80;;;;;;5089522;28;20467;-67
2021/04/15 15:49:31;;;;;;;13.50;3.72;;;24.40;62.90;;;;;;5084567;28;20032;-67
2021/04/15 15:52:28;;;;;;;18.92;4.22;;;24.40;62.90;;;;;;5083778;28;20420;-68
2021/04/15 15:54:54;;;;;;;16.63;6.88;;;24.40;63.30;;;;;;5089385;28;20095;-70
2021/04/15 15:57:31;;;;;;;13.90;6.40;;;24.30;62.80;;;;;;5083686;28;20020;-67
2021/04/15 16:00:18;;;;;;;20.83;5.90;;;24.30;62.80;;;;;;5090116;28;20016;-67
2021/04/15 16:03:02;;;;;;;12.88;4.03;;;24.30;62.80;;;;;;5089234;28;20085;-68
2021/04/15 16:05:30;;;;;;;12.93;4.38;;;24.20;63.40;;;;;;5083906;28;20059;-69
2021/04/15 16:08:10;;;;;;;13.68;3.45;;;24.20;63.90;;;;;;5085994;28;20419;-67
2021/04/15 16:10:41;;;;;;;16.02;4.60;;;24.10;63.50;;;;;;5084872;28;20028;-67
2021/04/15 16:13:13;;;;;;;17.13;7.97;;;24.10;63.60;;;;;;5087504;28;20032;-68
2021/04/15 16:15:45;;;;;;;25.70;15.38;;;24.10;63.60;;;;;;5089068;28;20026;-68
2021/04/15 16:18:20;;;;;;;20.73;12.35;;;24.00;63.70;;;;;;5090713;28;20044;-67
2021/04/15 16:21:00;;;;;;;19.30;11.23;;;24.00;63.80;;;;;;5083990;28;20494;-68
2021/04/15 16:23:31;;;;;;;16.70;7.63;;;24.00;63.80;;;;;;5078314;28;20024;-68
2021/04/15 16:25:58;;;;;;;12.18;5.32;;;24.00;63.90;;;;;;5072388;28;20505;-68
2021/04/15 16:28:25;;;;;;;12.20;4.95;;;24.00;64.20;;;;;;5077016;28;20059;-67
2021/04/15 16:30:53;;;;;;;12.45;5.32;;;24.00;64.30;;;;;;5082855;28;20087;-68
2021/04/15 16:33:21;;;;;;;12.43;6.25;;;24.00;64.20;;;;;;5080753;28;21071;-67
2021/04/15 16:35:48;;;;;;;11.10;4.57;;;23.90;64.20;;;;;;5081412;28;20081;-68
2021/04/15 16:38:43;;;;;;;6.65;4.45;;;23.90;64.10;;;;;;5079882;28;20443;-68
2021/04/15 16:41:13;;;;;;;16.10;4.60;;;23.90;64.70;;;;;;5081110;28;20028;-68
2021/04/15 16:43:41;;;;;;;12.43;3.58;;;23.90;64.10;;;;;;5081029;28;20020;-67
2021/04/15 16:46:08;;;;;;;14.75;3.53;;;23.80;64.00;;;;;;5079473;28;20016;-67
2021/04/15 16:48:36;;;;;;;16.08;4.28;;;23.80;64.10;;;;;;5087343;28;20027;-70
2021/04/15 16:51:03;;;;;;;9.70;4.18;;;23.80;64.00;;;;;;5084223;28;20491;-69
2021/04/15 16:53:30;;;;;;;10.88;3.97;;;23.70;64.00;;;;;;5081195;28;20467;-69
2021/04/15 16:55:57;;;;;;;13.57;3.00;;;23.70;63.90;;;;;;5084903;28;20016;-69
2021/04/15 16:58:25;;;;;;;13.13;3.78;;;23.70;63.90;;;;;;5084940;28;20372;-68
2021/04/15 17:00:56;;;;;;;14.38;4.07;;;23.70;63.90;;;;;;5083769;28;20040;-69
2021/04/15 17:03:24;;;;;;;13.15;3.63;;;23.70;64.10;;;;;;5080063;28;20470;-69
2021/04/15 17:05:51;;;;;;;18.70;4.22;;;23.60;64.20;;;;;;5085187;28;20454;-68
2021/04/15 17:08:19;;;;;;;8.93;3.53;;;23.70;64.40;;;;;;5080772;28;20497;-68
2021/04/15 17:10:49;;;;;;;11.18;3.15;;;23.60;64.70;;;;;;5088254;28;20152;-68
2021/04/15 17:13:16;;;;;;;12.93;3.28;;;23.60;65.30;;;;;;5089399;28;20021;-68
2021/04/15 17:15:44;;;;;;;9.55;3.45;;;23.60;65.30;;;;;;5087964;28;20511;-68
2021/04/15 17:18:13;;;;;;;12.82;3.38;;;23.60;65.30;;;;;;5086274;28;20013;-68
2021/04/15 17:20:40;;;;;;;10.73;4.07;;;23.60;65.20;;;;;;5087957;28;20032;-68
2021/04/15 17:23:07;;;;;;;9.43;3.00;;;23.60;65.10;;;;;;5080021;28;20096;-68
2021/04/15 17:25:33;;;;;;;6.55;2.72;;;23.60;65.10;;;;;;5080078;28;20074;-68
2021/04/15 17:28:01;;;;;;;11.38;3.05;;;23.60;65.10;;;;;;5084808;28;20028;-68
2021/04/15 17:30:31;;;;;;;8.85;3.22;;;23.60;65.20;;;;;;5084972;28;20044;-68
2021/04/15 17:32:57;;;;;;;5.32;2.80;;;23.50;65.10;;;;;;5086984;28;20059;-68
2021/04/15 17:35:27;;;;;;;11.52;4.10;;;23.50;65.20;;;;;;5088279;28;20016;-70
2021/04/15 17:37:53;;;;;;;11.18;4.28;;;23.50;65.20;;;;;;5085303;28;20375;-69
2021/04/15 17:40:25;;;;;;;12.68;3.70;;;23.50;65.30;;;;;;5089422;28;20039;-70
2021/04/15 17:42:51;;;;;;;11.50;3.90;;;23.50;65.40;;;;;;5086162;28;20020;-69
2021/04/15 17:45:18;;;;;;;8.98;3.38;;;23.50;65.50;;;;;;5083872;28;20021;-70
2021/04/15 17:47:45;;;;;;;15.98;4.45;;;23.50;65.60;;;;;;5088782;28;20073;-69
2021/04/15 17:50:16;;;;;;;12.10;2.28;;;23.50;65.70;;;;;;5088451;28;20040;-70
2021/04/15 17:52:43;;;;;;;11.73;3.10;;;23.40;65.70;;;;;;5085227;28;20024;-68
2021/04/15 17:55:13;;;;;;;14.15;4.35;;;23.40;65.80;;;;;;5088249;28;20123;-69
2021/04/15 17:57:40;;;;;;;11.50;4.78;;;23.40;65.90;;;;;;5088705;28;20031;-70
2021/04/15 18:00:11;;;;;;;10.68;4.53;;;23.40;66.00;;;;;;5085842;28;20398;-69
2021/04/15 18:02:39;;;;;;;7.13;3.35;;;23.40;65.90;;;;;;5085178;28;20028;-67
2021/04/15 18:05:08;;;;;;;8.70;3.20;;;23.40;65.90;;;;;;5089505;28;20028;-69
2021/04/15 18:07:36;;;;;;;11.73;3.75;;;23.40;65.90;;;;;;5082469;28;20103;-68
2021/04/15 18:10:08;;;;;;;9.52;2.70;;;23.40;66.00;;;;;;5084915;28;20016;-69
2021/04/15 18:12:36;;;;;;;3.58;2.20;;;23.40;66.00;;;;;;5086251;28;20016;-68
2021/04/15 18:15:05;;;;;;;7.15;2.70;;;23.40;65.90;;;;;;5085552;28;20020;-68
2021/04/15 18:17:32;;;;;;;6.03;2.00;;;23.30;65.90;;;;;;5086832;28;20140;-68
2021/04/15 18:19:59;;;;;;;9.77;6.05;;;23.30;65.80;;;;;;5084010;28;20110;-67
2021/04/15 18:22:27;;;;;;;13.50;8.77;;;23.30;65.70;;;;;;5084747;28;20065;-67
2021/04/15 18:24:54;;;;;;;13.73;9.35;;;23.30;65.70;;;;;;5087061;28;20097;-67
2021/04/15 18:27:21;;;;;;;9.65;7.40;;;23.30;65.70;;;;;;5088174;28;20024;-69
2021/04/15 18:29:49;;;;;;;8.80;5.90;;;23.30;65.70;;;;;;5087500;28;20132;-67
2021/04/15 18:32:16;;;;;;;10.95;6.35;;;23.30;65.70;;;;;;5083237;28;20016;-68
2021/04/15 18:34:43;;;;;;;11.13;4.05;;;23.20;65.70;;;;;;5087782;28;20020;-67
2021/04/15 18:37:12;;;;;;;7.47;3.08;;;23.20;65.80;;;;;;5085074;28;20233;-69
2021/04/15 18:39:40;;;;;;;8.45;2.65;;;23.20;65.70;;;;;;5086962;28;20502;-70
2021/04/15 18:42:08;;;;;;;6.38;2.95;;;23.20;65.70;;;;;;5083241;28;20023;-69
2021/04/15 18:44:35;;;;;;;8.82;2.58;;;23.20;65.80;;;;;;5086783;28;20042;-67
2021/04/15 18:47:02;;;;;;;6.72;2.40;;;23.10;65.70;;;;;;5084165;28;20044;-68
2021/04/15 18:49:29;;;;;;;6.57;2.50;;;23.20;65.80;;;;;;5086431;28;20028;-68
2021/04/15 18:51:56;;;;;;;10.00;2.40;;;23.10;65.70;;;;;;5085455;28;20035;-69
2021/04/15 18:54:23;;;;;;;8.45;2.67;;;23.10;65.70;;;;;;5084248;28;20719;-68
2021/04/15 18:56:49;;;;;;;7.35;2.28;;;23.10;65.60;;;;;;5085445;28;20017;-70
2021/04/15 18:59:17;;;;;;;8.68;2.60;;;23.10;65.50;;;;;;5083863;28;20024;-67
2021/04/15 19:01:44;;;;;;;4.15;1.90;;;23.10;65.50;;;;;;5088673;28;20020;-67
2021/04/15 19:04:11;;;;;;;5.70;2.08;;;23.10;65.40;;;;;;5079585;28;20721;-67
2021/04/15 19:06:37;;;;;;;5.13;1.95;;;23.10;65.30;;;;;;5089630;28;20019;-67
2021/04/15 19:09:05;;;;;;;9.40;3.00;;;23.10;65.20;;;;;;5084417;28;20031;-68
2021/04/15 19:11:32;;;;;;;9.85;3.25;;;23.10;65.20;;;;;;5084724;28;20482;-69
2021/04/15 19:13:59;;;;;;;9.98;2.35;;;23.00;65.00;;;;;;5089616;28;20047;-70
2021/04/15 19:16:26;;;;;;;6.72;2.35;;;23.00;65.10;;;;;;5085034;28;20027;-68
2021/04/15 19:18:54;;;;;;;8.30;2.58;;;23.00;65.10;;;;;;5085441;28;20122;-69
2021/04/15 19:21:22;;;;;;;11.23;2.88;;;23.00;65.10;;;;;;5081351;28;20382;-70
2021/04/15 19:23:48;;;;;;;9.15;2.67;;;23.00;65.10;;;;;;5088450;28;20086;-68
2021/04/15 19:26:19;;;;;;;8.57;2.28;;;23.00;65.10;;;;;;5083678;28;20027;-68
2021/04/15 19:28:46;;;;;;;10.18;2.42;;;23.00;65.10;;;;;;5086351;28;20027;-67
2021/04/15 19:31:16;;;;;;;22.83;3.08;;;22.90;65.00;;;;;;5082913;28;20066;-68
2021/04/15 19:33:43;;;;;;;6.90;1.88;;;22.90;65.00;;;;;;5086507;28;20019;-68
2021/04/15 19:36:10;;;;;;;11.45;2.75;;;22.90;65.00;;;;;;5084157;28;20020;-70
2021/04/15 19:38:36;;;;;;;11.80;2.78;;;22.90;65.60;;;;;;5081255;28;20095;-68
2021/04/15 19:41:03;;;;;;;8.48;1.85;;;22.90;64.90;;;;;;5080686;28;20093;-70
2021/04/15 19:43:29;;;;;;;7.18;2.53;;;22.90;64.90;;;;;;5077406;28;20490;-69
2021/04/15 19:45:56;;;;;;;8.70;1.90;;;22.90;64.80;;;;;;5080442;28;20389;-69
2021/04/15 19:48:25;;;;;;;10.15;2.42;;;22.90;64.80;;;;;;5082300;28;20020;-70
2021/04/15 19:50:55;;;;;;;9.65;2.42;;;22.80;64.60;;;;;;5084163;28;20591;-69
2021/04/15 19:53:24;;;;;;;12.63;3.58;;;22.90;64.50;;;;;;5083023;28;20389;-69
2021/04/15 19:55:52;;;;;;;9.23;3.72;;;22.80;64.40;;;;;;5084614;28;20470;-68
2021/04/15 19:58:23;;;;;;;6.65;2.35;;;22.90;64.40;;;;;;5085874;28;20038;-68
2021/04/15 20:00:50;;;;;;;6.07;1.90;;;22.80;64.30;;;;;;5088020;28;20018;-72
2021/04/15 20:03:17;;;;;;;7.20;2.40;;;22.80;64.40;;;;;;5079237;28;20028;-71
2021/04/15 20:05:44;;;;;;;14.60;4.28;;;22.80;64.40;;;;;;5083401;28;20024;-68
2021/04/15 20:08:23;;;;;;;9.27;2.08;;;22.80;64.40;;;;;;5082922;28;20375;-67
2021/04/15 20:10:49;;;;;;;8.80;2.05;;;22.80;64.40;;;;;;5088755;28;20039;-70
2021/04/15 20:13:16;;;;;;;12.65;3.53;;;22.80;64.40;;;;;;5089111;28;20016;-68
2021/04/15 20:15:42;;;;;;;7.70;2.70;;;22.70;64.40;;;;;;5090628;28;20315;-68
2021/04/15 20:18:11;;;;;;;7.63;2.38;;;22.70;64.40;;;;;;5088919;28;20070;-68
2021/04/15 20:20:39;;;;;;;7.22;2.35;;;22.70;64.50;;;;;;5090294;28;20013;-69
2021/04/15 20:23:07;;;;;;;5.85;2.15;;;22.70;64.50;;;;;;5084579;28;20052;-69
2021/04/15 20:25:34;;;;;;;8.80;2.40;;;22.70;64.60;;;;;;5089141;28;20055;-68
2021/04/15 20:28:02;;;;;;;13.70;3.10;;;22.70;64.60;;;;;;5089843;28;20382;-68
2021/04/15 20:30:32;;;;;;;10.88;2.95;;;22.70;64.60;;;;;;5088913;28;20110;-67
2021/04/15 20:33:01;;;;;;;9.07;2.78;;;22.70;64.60;;;;;;5083561;28;20023;-69
2021/04/15 20:35:27;;;;;;;6.03;2.25;;;22.70;64.50;;;;;;5088767;28;20012;-68
2021/04/15 20:37:54;;;;;;;9.88;2.63;;;22.70;64.50;;;;;;5089927;28;20146;-68
2021/04/15 20:40:23;;;;;;;13.93;3.92;;;22.60;64.40;;;;;;5087356;28;20104;-69
2021/04/15 20:42:49;;;;;;;7.82;2.83;;;22.60;64.30;;;;;;5090322;28;20039;-69
2021/04/15 20:45:17;;;;;;;7.60;2.10;;;22.60;64.20;;;;;;5091758;28;20501;-69
2021/04/15 20:47:46;;;;;;;10.52;2.70;;;22.60;64.20;;;;;;5092993;28;20489;-68
2021/04/15 20:50:17;;;;;;;13.82;3.53;;;22.60;64.20;;;;;;5094070;28;20027;-70
2021/04/15 20:52:44;;;;;;;11.82;3.67;;;22.60;64.10;;;;;;5087221;28;20032;-68
2021/04/15 20:55:13;;;;;;;5.28;2.42;;;22.60;64.10;;;;;;5093410;28;20015;-69
2021/04/15 20:57:48;;;;;;;16.33;2.35;;;22.60;64.10;;;;;;5088279;28;20021;-70
2021/04/15 21:00:21;;;;;;;8.23;1.88;;;22.60;64.10;;;;;;5071494;28;20557;-68
2021/04/15 21:02:47;;;;;;;6.40;2.22;;;22.60;64.10;;;;;;5080915;28;20031;-69
2021/04/15 21:05:14;;;;;;;9.18;2.38;;;22.50;64.10;;;;;;5085608;28;20149;-68
2021/04/15 21:07:41;;;;;;;5.00;1.63;;;22.50;64.10;;;;;;5076051;28;20107;-69